Time;durP1;ratioP1;P1;durP2;ratioP2;P2;SDS_P1;SDS_P2;PMS_P1;PMS_P2;Temp;Humidity;BMP_temperature;BMP_pressure;BME280_temperature;BME280_humidity;BME280_pressure;Samples;Min_cycle;Max_cycle;Signal;HPM_P1;HPM_P2
2022/11/16 00:00:27;;;;;;;;;;;;;;;10.69;95.40;100034.84;2097684;28;26112;-66
2022/11/16 00:01:31;;;;;;;;;;;;;;;10.70;95.47;100028.53;2097294;28;25991;-66
2022/11/16 00:02:33;;;;;;;;;;;;;;;10.72;95.21;100030.28;2097848;28;20078;-66
2022/11/16 00:03:35;;;;;;;;;;;;;;;10.70;95.25;100033.03;2097940;28;20090;-66
2022/11/16 00:04:37;;;;;;;;;;;;;;;10.69;95.29;100021.47;2097998;28;22063;-66
2022/11/16 00:05:40;;;;;;;;;;;;;;;10.69;95.55;100023.25;2097786;28;19972;-66
2022/11/16 00:06:44;;;;;;;;;;;;;;;10.69;95.80;100032.16;2097212;28;29452;-66
2022/11/16 00:07:46;;;;;;;;;;;;;;;10.68;95.55;100025.06;2097792;28;19913;-66
2022/11/16 00:10:11;;;;;;;;;;;;;;;10.68;95.41;100025.06;2097494;28;36747;-66
2022/11/16 00:11:19;;;;;;;;;;;;;;;10.70;95.24;100028.53;2096949;28;39051;-66
2022/11/16 00:12:20;;;;;;;;;;;;;;;10.69;95.29;100021.47;2097458;28;40661;-66
2022/11/16 00:13:22;;;;;;;;;;;;;;;10.70;95.09;100017.81;2097866;28;20064;-66
2022/11/16 00:14:26;;;;;;;;;;;;;;;10.70;94.88;100025.00;2097607;28;31926;-66
2022/11/16 00:15:28;;;;;;;;;;;;;;;10.70;95.01;100028.53;2097258;28;34443;-66
2022/11/16 00:16:30;;;;;;;;;;;;;;;10.70;95.13;100017.81;2098145;28;20002;-66
2022/11/16 00:17:32;;;;;;;;;;;;;;;10.69;95.25;100010.75;2096137;28;38039;-66
2022/11/16 00:18:33;;;;;;;;;;;;;;;10.70;95.06;100016.97;2096855;28;37226;-66
2022/11/16 00:19:37;;;;;;;;;;;;;;;10.70;94.78;100015.16;2097091;28;37792;-66
2022/11/16 00:20:39;;;;;;;;;;;;;;;10.68;95.20;100014.34;2097302;28;30922;-66
2022/11/16 00:21:40;;;;;;;;;;;;;;;10.68;94.91;100014.34;2097494;28;33752;-67
2022/11/16 00:22:42;;;;;;;;;;;;;;;10.70;95.00;100016.97;2097071;28;34629;-66
2022/11/16 00:23:43;;;;;;;;;;;;;;;10.69;94.62;100010.75;2097446;28;35633;-66
2022/11/16 00:24:45;;;;;;;;;;;;;;;10.68;94.76;100009.00;2096758;28;34257;-66
2022/11/16 00:25:47;;;;;;;;;;;;;;;10.67;95.39;100007.22;2096810;28;29330;-66
2022/11/16 00:26:49;;;;;;;;;;;;;;;10.67;95.38;100009.03;2097488;28;31547;-66
2022/11/16 00:27:51;;;;;;;;;;;;;;;10.68;95.43;100010.81;2097700;28;19924;-66
2022/11/16 00:28:54;;;;;;;;;;;;;;;10.68;95.32;100002.78;2097185;28;33523;-66
2022/11/16 00:29:58;;;;;;;;;;;;;;;10.67;95.45;100001.00;2091554;28;20770;-66
2022/11/16 00:31:01;;;;;;;;;;;;;;;10.66;95.58;99994.78;2088556;28;25059;-66
2022/11/16 00:32:03;;;;;;;;;;;;;;;10.70;95.57;100007.13;2089320;28;19929;-66
2022/11/16 00:33:13;;;;;;;;;;;;;;;10.68;95.98;100000.97;2096822;28;19928;-66
2022/11/16 00:34:14;;;;;;;;;;;;;;;10.67;96.26;99999.19;2096183;28;27284;-66
2022/11/16 00:35:16;;;;;;;;;;;;;;;10.66;96.84;99999.28;2089377;28;24982;-66
2022/11/16 00:36:18;;;;;;;;;;;;;;;10.63;96.69;100004.75;2088491;28;30062;-66
2022/11/16 00:37:20;;;;;;;;;;;;;;;10.61;97.06;99995.91;2088586;28;19913;-66
2022/11/16 00:38:22;;;;;;;;;;;;;;;10.59;97.60;99995.97;2089364;28;19921;-66
2022/11/16 00:39:24;;;;;;;;;;;;;;;10.56;97.92;99993.38;2096105;28;32366;-66
2022/11/16 00:40:25;;;;;;;;;;;;;;;10.55;98.38;99996.13;2096586;28;29724;-66
2022/11/16 00:41:27;;;;;;;;;;;;;;;10.53;98.51;99998.84;2089294;28;26117;-66
2022/11/16 00:42:29;;;;;;;;;;;;;;;10.52;98.31;99996.25;2096838;28;19916;-65
2022/11/16 00:43:31;;;;;;;;;;;;;;;10.50;98.68;99991.81;2096320;28;36794;-66
2022/11/16 00:44:32;;;;;;;;;;;;;;;10.49;98.25;99989.19;2088706;28;23605;-66
2022/11/16 00:45:34;;;;;;;;;;;;;;;10.48;98.79;99990.13;2089026;28;32548;-66
2022/11/16 00:46:36;;;;;;;;;;;;;;;10.47;98.82;99989.25;2089518;28;19925;-66
2022/11/16 00:47:40;;;;;;;;;;;;;;;10.50;98.76;99993.63;2088567;28;20078;-66
2022/11/16 00:48:44;;;;;;;;;;;;;;;10.48;98.37;99992.78;2088357;28;27533;-67
2022/11/16 00:49:45;;;;;;;;;;;;;;;10.48;98.25;100001.72;2096714;28;25090;-66
2022/11/16 00:50:47;;;;;;;;;;;;;;;10.50;98.09;99983.78;2096838;28;19929;-66
2022/11/16 00:51:49;;;;;;;;;;;;;;;10.50;98.04;99988.28;2088410;28;19921;-66
2022/11/16 00:52:52;;;;;;;;;;;;;;;10.49;98.27;99982.03;2080458;28;19952;-66
2022/11/16 00:53:53;;;;;;;;;;;;;;;10.52;98.31;99986.41;2088021;28;26960;-66
2022/11/16 00:54:56;;;;;;;;;;;;;;;10.51;98.28;99981.97;2096952;28;19920;-66
2022/11/16 00:55:58;;;;;;;;;;;;;;;10.51;98.22;99984.66;2088404;28;19909;-66
2022/11/16 00:56:59;;;;;;;;;;;;;;;10.49;98.30;99981.19;2080159;28;20501;-66
2022/11/16 00:58:01;;;;;;;;;;;;;;;10.50;98.22;99986.47;2072378;28;19932;-66
2022/11/16 00:59:03;;;;;;;;;;;;;;;10.50;98.38;99981.13;2072614;28;19922;-66
2022/11/16 01:00:08;;;;;;;;;;;;;;;10.50;98.50;99980.25;2080617;28;19933;-66
2022/11/16 01:01:10;;;;;;;;;;;;;;;10.50;98.34;99989.16;2080432;28;21354;-66
2022/11/16 01:02:12;;;;;;;;;;;;;;;10.50;98.85;99988.28;2088380;28;27592;-66
2022/11/16 01:03:15;;;;;;;;;;;;;;;10.50;98.72;99982.94;2089385;28;20101;-66
2022/11/16 01:04:16;;;;;;;;;;;;;;;10.50;99.31;99980.25;2096398;28;27466;-67
2022/11/16 01:05:18;;;;;;;;;;;;;;;10.49;99.35;99978.50;2096393;28;31179;-67
2022/11/16 01:06:22;;;;;;;;;;;;;;;10.48;100.00;99983.00;2096423;28;23084;-67
2022/11/16 01:07:23;;;;;;;;;;;;;;;10.46;100.00;99976.81;2095901;28;20893;-67
2022/11/16 01:08:27;;;;;;;;;;;;;;;10.44;100.00;99984.00;2096592;28;26239;-67
2022/11/16 01:09:29;;;;;;;;;;;;;;;10.43;100.00;99973.41;2095792;28;32750;-67
2022/11/16 01:10:31;;;;;;;;;;;;;;;10.42;100.00;99982.34;2096761;28;20825;-67
2022/11/16 01:12:53;;;;;;;;;;;;;;;10.38;100.00;99975.38;2089140;28;19921;-66
2022/11/16 01:13:55;;;;;;;;;;;;;;;10.35;100.00;99983.50;2096235;28;27530;-67
2022/11/16 01:14:56;;;;;;;;;;;;;;;10.31;100.00;99982.75;2096617;28;29902;-67
2022/11/16 01:15:58;;;;;;;;;;;;;;;10.29;100.00;99974.72;2088664;28;29511;-67
2022/11/16 01:16:59;;;;;;;;;;;;;;;10.27;100.00;99981.94;2088824;28;29077;-67
2022/11/16 01:18:04;;;;;;;;;;;;;;;10.25;100.00;99981.13;2096087;28;28404;-67
2022/11/16 01:19:06;;;;;;;;;;;;;;;10.24;100.00;99975.84;2096070;28;20066;-67
2022/11/16 01:20:12;;;;;;;;;;;;;;;10.24;100.00;99970.50;2080256;28;31357;-67
2022/11/16 01:21:14;;;;;;;;;;;;;;;10.22;100.00;99972.34;2079389;28;36965;-67
2022/11/16 01:22:16;;;;;;;;;;;;;;;10.20;100.00;99968.88;2079915;28;19965;-67
2022/11/16 01:23:17;;;;;;;;;;;;;;;10.17;100.00;99968.97;2080235;28;30204;-68
2022/11/16 01:24:19;;;;;;;;;;;;;;;10.15;100.00;99961.00;2080507;28;33957;-67
2022/11/16 01:25:21;;;;;;;;;;;;;;;10.13;100.00;99966.41;2079934;28;28276;-67
2022/11/16 01:26:23;;;;;;;;;;;;;;;10.13;100.00;99963.72;2079918;28;19979;-68
2022/11/16 01:27:25;;;;;;;;;;;;;;;10.10;100.00;99966.53;2080174;28;20845;-68
2022/11/16 01:28:28;;;;;;;;;;;;;;;10.08;100.00;99962.16;2088799;28;20769;-68
2022/11/16 01:29:30;;;;;;;;;;;;;;;10.05;100.00;99955.13;2096229;28;19932;-67
2022/11/16 01:30:34;;;;;;;;;;;;;;;10.04;100.00;99963.19;2080488;28;19922;-67
2022/11/16 01:31:40;;;;;;;;;;;;;;;10.04;100.00;99963.19;2096962;28;19924;-67
2022/11/16 01:32:42;;;;;;;;;;;;;;;10.02;100.00;99957.91;2087320;28;19921;-67
2022/11/16 01:33:44;;;;;;;;;;;;;;;10.01;100.00;99958.81;2080118;28;19930;-67
2022/11/16 01:34:58;;;;;;;;;;;;;;;9.98;100.00;99958.97;2096583;28;19995;-67
2022/11/16 01:36:13;;;;;;;;;;;;;;;9.97;100.00;99964.34;2087934;28;19917;-67
2022/11/16 01:37:18;;;;;;;;;;;;;;;9.94;100.00;99958.19;2072842;28;19921;-66
2022/11/16 01:38:20;;;;;;;;;;;;;;;9.94;100.00;99958.19;2080032;28;19925;-67
2022/11/16 01:39:24;;;;;;;;;;;;;;;9.91;100.00;99955.63;2087605;28;20032;-67
2022/11/16 01:40:30;;;;;;;;;;;;;;;9.89;100.00;99954.81;2080379;28;20910;-67
2022/11/16 01:41:31;;;;;;;;;;;;;;;9.89;100.00;99954.81;2080085;28;19917;-66
2022/11/16 01:42:36;;;;;;;;;;;;;;;9.89;100.00;99956.63;2088374;28;19924;-67
2022/11/16 01:43:54;;;;;;;;;;;;;;;9.88;100.00;99955.72;2096472;28;20301;-67
2022/11/16 01:45:05;;;;;;;;;;;;;;;9.87;100.00;99947.75;2085798;28;19929;-67
2022/11/16 01:46:07;;;;;;;;;;;;;;;9.87;100.00;99954.00;2081223;28;20860;-67
2022/11/16 01:47:11;;;;;;;;;;;;;;;9.86;100.00;99941.53;2096533;28;19921;-67
2022/11/16 01:48:19;;;;;;;;;;;;;;;9.86;100.00;99941.53;2088274;28;20785;-67
2022/11/16 01:49:24;;;;;;;;;;;;;;;9.85;100.00;99937.16;2089069;28;19921;-67
2022/11/16 01:50:28;;;;;;;;;;;;;;;9.85;100.00;99945.16;2092887;28;19936;-68
2022/11/16 01:51:32;;;;;;;;;;;;;;;9.84;100.00;99939.88;2088146;28;19921;-67
2022/11/16 01:52:39;;;;;;;;;;;;;;;9.85;100.00;99937.16;2088268;28;20935;-67
2022/11/16 01:53:40;;;;;;;;;;;;;;;9.83;100.00;99933.63;2087847;28;20678;-67
2022/11/16 01:54:45;;;;;;;;;;;;;;;9.84;100.00;99932.72;2080064;28;19918;-67
2022/11/16 01:55:47;;;;;;;;;;;;;;;9.83;100.00;99936.28;2080289;28;19917;-67
2022/11/16 01:57:22;;;;;;;;;;;;;;;9.82;100.00;99928.38;2072093;28;20009;-67
2022/11/16 01:58:35;;;;;;;;;;;;;;;9.80;100.00;99925.75;2087294;28;19948;-68
2022/11/16 01:59:54;;;;;;;;;;;;;;;9.81;100.00;99923.94;2087316;28;19917;-68
2022/11/16 02:00:57;;;;;;;;;;;;;;;9.81;100.00;99923.94;2080882;28;20040;-67
2022/11/16 02:02:09;;;;;;;;;;;;;;;9.81;100.00;99916.78;2081196;28;20067;-65
2022/11/16 02:03:11;;;;;;;;;;;;;;;9.81;100.00;99921.25;2080007;28;19922;-67
2022/11/16 02:04:20;;;;;;;;;;;;;;;9.81;100.00;99913.25;2080958;28;19925;-67
2022/11/16 02:05:46;;;;;;;;;;;;;;;9.81;100.00;99913.25;2080337;28;19952;-68
2022/11/16 02:07:15;;;;;;;;;;;;;;;9.80;100.00;99912.38;2081786;28;19973;-67
2022/11/16 02:10:12;;;;;;;;;;;;;;;9.82;100.00;99899.81;2086879;28;20043;-68
2022/11/16 02:11:31;;;;;;;;;;;;;;;9.82;100.00;99897.16;2087320;28;27029;-67
2022/11/16 02:12:48;;;;;;;;;;;;;;;9.82;100.00;99893.59;2089759;28;19964;-67
2022/11/16 02:14:09;;;;;;;;;;;;;;;9.83;100.00;99892.66;2087453;28;19990;-67
2022/11/16 02:15:26;;;;;;;;;;;;;;;9.82;100.00;99894.47;2081577;28;19998;-67
2022/11/16 02:17:06;;;;;;;;;;;;;;;9.82;100.00;99889.13;2082905;28;19925;-67
2022/11/16 02:18:23;;;;;;;;;;;;;;;9.83;100.00;99890.84;2083118;28;19921;-67
2022/11/16 02:19:34;;;;;;;;;;;;;;;9.84;100.00;99889.06;2080824;28;19925;-67
2022/11/16 02:20:54;;;;;;;;;;;;;;;9.84;100.00;99884.59;2086759;28;30510;-67
2022/11/16 02:22:31;;;;;;;;;;;;;;;9.85;100.00;99891.69;2091502;28;19921;-67
2022/11/16 02:24:10;;;;;;;;;;;;;;;9.85;100.00;99885.44;2089086;28;19998;-67
2022/11/16 02:25:31;;;;;;;;;;;;;;;9.83;100.00;99888.19;2087819;28;19921;-66
2022/11/16 02:27:10;;;;;;;;;;;;;;;9.84;100.00;99881.91;2082519;28;19921;-66
2022/11/16 02:28:20;;;;;;;;;;;;;;;9.82;100.00;99881.09;2088314;28;19921;-67
2022/11/16 02:29:21;;;;;;;;;;;;;;;9.84;100.00;99891.75;2088948;28;19921;-67
2022/11/16 02:30:23;;;;;;;;;;;;;;;9.85;100.00;99880.09;2096486;28;20309;-67
2022/11/16 02:31:35;;;;;;;;;;;;;;;9.84;100.00;99891.75;2079518;28;19925;-68
2022/11/16 02:32:46;;;;;;;;;;;;;;;9.84;100.00;99886.41;2074123;28;24470;-67
2022/11/16 02:33:50;;;;;;;;;;;;;;;9.83;100.00;99880.16;2081068;28;19918;-68
2022/11/16 02:35:00;;;;;;;;;;;;;;;9.83;100.00;99885.50;2080224;28;19917;-68
2022/11/16 02:36:06;;;;;;;;;;;;;;;9.84;100.00;99881.91;2080959;28;19957;-67
2022/11/16 02:37:13;;;;;;;;;;;;;;;9.81;100.00;99881.16;2088641;28;19917;-68
2022/11/16 02:38:25;;;;;;;;;;;;;;;9.80;100.00;99890.97;2095612;28;19924;-67
2022/11/16 02:39:31;;;;;;;;;;;;;;;9.82;100.00;99889.13;2095597;28;19921;-68
2022/11/16 02:40:35;;;;;;;;;;;;;;;9.81;100.00;99887.38;2088343;28;20896;-67
2022/11/16 02:41:40;;;;;;;;;;;;;;;9.81;100.00;99887.38;2089237;28;19929;-68
2022/11/16 02:43:05;;;;;;;;;;;;;;;9.80;100.00;99882.97;2089306;28;20756;-68
2022/11/16 02:44:14;;;;;;;;;;;;;;;9.81;100.00;99878.47;2089206;28;19929;-69
2022/11/16 02:45:23;;;;;;;;;;;;;;;9.81;100.00;99886.50;2081821;28;19921;-67
2022/11/16 02:46:30;;;;;;;;;;;;;;;9.79;100.00;99883.03;2073934;28;19988;-68
2022/11/16 02:47:34;;;;;;;;;;;;;;;9.78;100.00;99887.50;2073993;28;21207;-68
2022/11/16 02:48:43;;;;;;;;;;;;;;;9.77;100.00;99883.06;2073252;28;19918;-68
2022/11/16 02:49:51;;;;;;;;;;;;;;;9.78;100.00;99884.81;2081394;28;20056;-68
2022/11/16 02:50:54;;;;;;;;;;;;;;;9.79;100.00;99886.56;2080481;28;33582;-68
2022/11/16 02:51:57;;;;;;;;;;;;;;;9.81;100.00;99889.19;2090855;28;31748;-69
2022/11/16 02:52:59;;;;;;;;;;;;;;;9.84;100.00;99878.38;2089411;28;19932;-68
2022/11/16 02:54:15;;;;;;;;;;;;;;;9.81;100.00;99878.47;2080645;28;20810;-68
2022/11/16 02:55:21;;;;;;;;;;;;;;;9.79;100.00;99883.88;2075989;28;20688;-68
2022/11/16 02:56:23;;;;;;;;;;;;;;;9.78;100.00;99882.16;2088699;28;27234;-68
2022/11/16 02:57:53;;;;;;;;;;;;;;;9.77;100.00;99880.41;2090302;28;19921;-68
2022/11/16 02:58:57;;;;;;;;;;;;;;;9.78;100.00;99887.50;2077164;28;20160;-69
2022/11/16 03:00:03;;;;;;;;;;;;;;;9.75;100.00;99882.25;2097689;28;19921;-68
2022/11/16 03:01:18;;;;;;;;;;;;;;;9.73;100.00;99879.63;2089149;28;19917;-67
2022/11/16 03:02:19;;;;;;;;;;;;;;;9.72;100.00;99879.69;2081685;28;20080;-68
2022/11/16 03:03:30;;;;;;;;;;;;;;;9.70;100.00;99870.84;2080508;28;35501;-68
2022/11/16 03:04:44;;;;;;;;;;;;;;;9.69;100.00;99872.66;2082261;28;20842;-68
2022/11/16 03:05:51;;;;;;;;;;;;;;;9.68;100.00;99870.03;2080651;28;26523;-69
2022/11/16 03:06:56;;;;;;;;;;;;;;;9.69;100.00;99877.13;2081696;28;20358;-68
2022/11/16 03:08:48;;;;;;;;;;;;;;;9.68;100.00;99875.38;2088557;28;25854;-68
2022/11/16 03:09:52;;;;;;;;;;;;;;;9.66;100.00;99878.13;2057532;28;19927;-68
2022/11/16 03:12:29;;;;;;;;;;;;;;;9.64;100.00;99869.28;2089238;28;19929;-69
2022/11/16 03:13:33;;;;;;;;;;;;;;;9.64;100.00;99879.13;2080972;28;20797;-69
2022/11/16 03:14:47;;;;;;;;;;;;;;;9.61;100.00;99874.72;2080181;28;33453;-69
2022/11/16 03:15:51;;;;;;;;;;;;;;;9.60;100.00;99869.44;2081081;28;19983;-70
2022/11/16 03:16:59;;;;;;;;;;;;;;;9.59;100.00;99881.06;2081261;28;19921;-69
2022/11/16 03:18:04;;;;;;;;;;;;;;;9.57;100.00;99882.94;2081304;28;20020;-69
2022/11/16 03:19:09;;;;;;;;;;;;;;;9.57;100.00;99877.59;2080361;28;25532;-70
2022/11/16 03:20:21;;;;;;;;;;;;;;;9.58;100.00;99873.97;2081183;28;19917;-70
2022/11/16 03:21:35;;;;;;;;;;;;;;;9.57;100.00;99872.25;2080397;28;19922;-70
2022/11/16 03:22:42;;;;;;;;;;;;;;;9.55;100.00;99878.50;2083589;28;29302;-70
2022/11/16 03:23:45;;;;;;;;;;;;;;;9.54;100.00;99876.75;2088561;28;19924;-70
2022/11/16 03:24:47;;;;;;;;;;;;;;;9.52;100.00;99886.63;2080834;28;19980;-70
2022/11/16 03:25:51;;;;;;;;;;;;;;;9.51;100.00;99879.56;2077445;28;19925;-70
2022/11/16 03:27:12;;;;;;;;;;;;;;;9.51;100.00;99882.22;2089216;28;19924;-70
2022/11/16 03:28:21;;;;;;;;;;;;;;;9.49;100.00;99881.41;2095331;28;20728;-70
2022/11/16 03:29:38;;;;;;;;;;;;;;;9.49;100.00;99870.72;2089624;28;19980;-70
2022/11/16 03:30:49;;;;;;;;;;;;;;;9.46;100.00;99883.31;2088383;28;19925;-70
2022/11/16 03:31:58;;;;;;;;;;;;;;;9.47;100.00;99871.69;2089055;28;26149;-71
2022/11/16 03:33:17;;;;;;;;;;;;;;;9.44;100.00;99875.34;2097289;28;19921;-69
2022/11/16 03:34:26;;;;;;;;;;;;;;;9.43;100.00;99873.59;2089166;28;20022;-70
2022/11/16 03:35:37;;;;;;;;;;;;;;;9.41;100.00;99867.44;2082276;28;19918;-70
2022/11/16 03:36:43;;;;;;;;;;;;;;;9.38;100.00;99872.88;2082292;28;20061;-71
2022/11/16 03:37:48;;;;;;;;;;;;;;;9.38;100.00;99882.69;2081811;28;20817;-71
2022/11/16 03:38:51;;;;;;;;;;;;;;;9.39;100.00;99866.63;2081560;28;19964;-70
2022/11/16 03:39:56;;;;;;;;;;;;;;;9.38;100.00;99866.66;2089430;28;19921;-71
2022/11/16 03:41:02;;;;;;;;;;;;;;;9.37;100.00;99873.81;2097353;28;20892;-70
2022/11/16 03:42:09;;;;;;;;;;;;;;;9.37;100.00;99865.81;2088741;28;20046;-70
2022/11/16 03:43:12;;;;;;;;;;;;;;;9.36;100.00;99870.25;2089662;28;20714;-70
2022/11/16 03:44:17;;;;;;;;;;;;;;;9.35;100.00;99867.66;2096774;28;20046;-70
2022/11/16 03:45:20;;;;;;;;;;;;;;;9.32;100.00;99860.63;2097289;28;19924;-70
2022/11/16 03:46:26;;;;;;;;;;;;;;;9.31;100.00;99860.66;2088704;28;19924;-70
2022/11/16 03:47:28;;;;;;;;;;;;;;;9.29;100.00;99870.53;2081438;28;19933;-71
2022/11/16 03:48:35;;;;;;;;;;;;;;;9.27;100.00;99867.91;2088438;28;24517;-70
2022/11/16 03:49:46;;;;;;;;;;;;;;;9.23;100.00;99858.28;2097541;28;19936;-70
2022/11/16 03:50:51;;;;;;;;;;;;;;;9.23;100.00;99860.09;2088773;28;19921;-71
2022/11/16 03:51:53;;;;;;;;;;;;;;;9.23;100.00;99863.63;2088935;28;20863;-70
2022/11/16 03:52:56;;;;;;;;;;;;;;;9.21;100.00;99865.47;2098954;28;19925;-70
2022/11/16 03:53:58;;;;;;;;;;;;;;;9.20;100.00;99857.50;2098283;28;19932;-70
2022/11/16 03:54:59;;;;;;;;;;;;;;;9.20;100.00;99857.50;2097021;28;20039;-71
2022/11/16 03:56:02;;;;;;;;;;;;;;;9.17;100.00;99864.69;2088941;28;20702;-71
2022/11/16 03:57:03;;;;;;;;;;;;;;;9.17;100.00;99862.03;2080807;28;19929;-70
2022/11/16 03:58:08;;;;;;;;;;;;;;;9.15;100.00;99861.22;2081516;28;20055;-71
2022/11/16 03:59:12;;;;;;;;;;;;;;;9.14;100.00;99864.81;2089504;28;19928;-71
2022/11/16 04:00:14;;;;;;;;;;;;;;;9.12;100.00;99863.97;2097158;28;19921;-71
2022/11/16 04:01:16;;;;;;;;;;;;;;;9.12;100.00;99855.97;2096984;28;20736;-70
2022/11/16 04:02:19;;;;;;;;;;;;;;;9.11;100.00;99864.03;2088745;28;20036;-70
2022/11/16 04:03:23;;;;;;;;;;;;;;;9.10;100.00;99863.16;2080890;28;19930;-70
2022/11/16 04:25:03;;;;;;;;;;;;;;;8.87;100.00;99833.72;2083243;28;20000;-69
2022/11/16 04:26:07;;;;;;;;;;;;;;;8.89;100.00;99831.88;2089167;28;19928;-70
2022/11/16 04:28:35;;;;;;;;;;;;;;;8.83;100.00;99840.94;2088816;28;19968;-70
2022/11/16 04:29:39;;;;;;;;;;;;;;;8.81;100.00;99840.13;2080856;28;19992;-70
2022/11/16 04:37:53;;;;;;;;;;;;;;;8.66;100.00;99833.50;2083241;28;20883;-70
2022/11/16 04:39:03;;;;;;;;;;;;;;;8.67;100.00;99832.59;2083419;28;20030;-70
2022/11/16 04:40:05;;;;;;;;;;;;;;;8.67;100.00;99824.56;2088355;28;23879;-69
2022/11/16 04:42:13;;;;;;;;;;;;;;;8.66;100.00;99835.28;2096698;28;30597;-70
2022/11/16 04:42:29;;;;;;;;;;;;;;;8.64;100.00;99834.47;2096840;28;19920;-69
2022/11/16 04:43:31;;;;;;;;;;;;;;;8.61;100.00;99832.75;2097334;28;19920;-71
2022/11/16 04:47:17;;;;;;;;;;;;;;;8.57;100.00;99831.13;2088625;28;19927;-71
2022/11/16 04:48:20;;;;;;;;;;;;;;;8.58;100.00;99830.22;2080370;28;20010;-71
2022/11/16 04:49:26;;;;;;;;;;;;;;;8.56;100.00;99830.25;2081083;28;19928;-70
2022/11/16 04:50:30;;;;;;;;;;;;;;;8.54;100.00;99841.88;2080691;28;19932;-70
2022/11/16 04:51:33;;;;;;;;;;;;;;;8.52;100.00;99836.59;2081317;28;19917;-70
2022/11/16 04:52:36;;;;;;;;;;;;;;;8.53;100.00;99841.03;2088310;28;19921;-71
2022/11/16 04:53:39;;;;;;;;;;;;;;;8.52;100.00;99835.75;2097168;28;19928;-70
2022/11/16 04:54:48;;;;;;;;;;;;;;;8.51;100.00;99828.69;2089735;28;19920;-69
2022/11/16 04:55:51;;;;;;;;;;;;;;;8.48;100.00;99829.63;2088656;28;19925;-69
2022/11/16 04:56:55;;;;;;;;;;;;;;;8.48;100.00;99834.97;2088783;28;19917;-70
2022/11/16 04:57:58;;;;;;;;;;;;;;;8.47;100.00;99827.00;2080692;28;19922;-69
2022/11/16 04:58:59;;;;;;;;;;;;;;;8.45;100.00;99832.38;2088587;28;19999;-69
2022/11/16 05:00:05;;;;;;;;;;;;;;;8.44;100.00;99829.78;2096901;28;19916;-70
2022/11/16 05:01:08;;;;;;;;;;;;;;;8.43;100.00;99825.38;2096049;28;19917;-70
2022/11/16 05:02:10;;;;;;;;;;;;;;;8.42;100.00;99819.16;2088956;28;20971;-71
2022/11/16 05:03:19;;;;;;;;;;;;;;;8.38;100.00;99818.38;2088200;28;19921;-70
2022/11/16 05:04:20;;;;;;;;;;;;;;;8.37;100.00;99821.94;2080014;28;19984;-69
2022/11/16 05:05:22;;;;;;;;;;;;;;;8.36;100.00;99816.66;2080367;28;19921;-70
2022/11/16 05:06:26;;;;;;;;;;;;;;;8.36;100.00;99822.88;2080185;28;19926;-70
2022/11/16 05:07:29;;;;;;;;;;;;;;;8.36;100.00;99817.53;2088472;28;19996;-69
2022/11/16 05:08:46;;;;;;;;;;;;;;;8.34;100.00;99814.03;2088453;28;20039;-70
2022/11/16 05:09:49;;;;;;;;;;;;;;;8.33;100.00;99812.28;2080468;28;19929;-70
2022/11/16 05:10:50;;;;;;;;;;;;;;;8.33;100.00;99811.44;2088484;28;19929;-70
2022/11/16 05:11:52;;;;;;;;;;;;;;;8.33;100.00;99814.09;2096642;28;20003;-70
2022/11/16 05:12:54;;;;;;;;;;;;;;;8.32;100.00;99805.22;2088324;28;21106;-69
2022/11/16 05:13:57;;;;;;;;;;;;;;;8.32;100.00;99817.69;2080800;28;20015;-68
2022/11/16 05:14:59;;;;;;;;;;;;;;;8.31;100.00;99813.25;2088848;28;19978;-72
2022/11/16 05:16:04;;;;;;;;;;;;;;;8.31;100.00;99813.25;2087950;28;19921;-71
2022/11/16 05:17:06;;;;;;;;;;;;;;;8.31;100.00;99818.59;2080116;28;19928;-72
2022/11/16 05:18:08;;;;;;;;;;;;;;;8.30;100.00;99817.72;2088495;28;19921;-72
2022/11/16 05:21:56;;;;;;;;;;;;;;;8.28;100.00;99816.91;2088345;28;21008;-72
2022/11/16 05:23:00;;;;;;;;;;;;;;;8.27;100.00;99809.81;2080225;28;19945;-72
2022/11/16 05:25:26;;;;;;;;;;;;;;;8.26;100.00;99800.09;2092039;28;19988;-70
2022/11/16 05:26:31;;;;;;;;;;;;;;;8.25;100.00;99803.66;2087899;28;19921;-70
2022/11/16 05:27:34;;;;;;;;;;;;;;;8.24;100.00;99807.25;2088653;28;19924;-70
2022/11/16 05:28:36;;;;;;;;;;;;;;;8.24;100.00;99807.25;2088276;28;19920;-70
2022/11/16 05:29:41;;;;;;;;;;;;;;;8.25;100.00;99816.13;2088423;28;20039;-70
2022/11/16 05:30:44;;;;;;;;;;;;;;;8.22;100.00;99804.63;2096185;28;20054;-72
2022/11/16 05:31:48;;;;;;;;;;;;;;;8.22;100.00;99803.78;2088338;28;20717;-72
2022/11/16 05:32:50;;;;;;;;;;;;;;;8.23;100.00;99808.16;2079816;28;19926;-71
2022/11/16 05:33:56;;;;;;;;;;;;;;;8.21;100.00;99804.69;2080436;28;20002;-72
2022/11/16 05:34:58;;;;;;;;;;;;;;;8.20;100.00;99802.94;2080286;28;21203;-71
2022/11/16 05:35:59;;;;;;;;;;;;;;;8.19;100.00;99798.53;2079896;28;20024;-71
2022/11/16 05:37:01;;;;;;;;;;;;;;;8.19;100.00;99814.53;2079678;28;19921;-71
2022/11/16 05:38:03;;;;;;;;;;;;;;;8.18;100.00;99803.00;2080923;28;20060;-68
2022/11/16 05:39:10;;;;;;;;;;;;;;;8.18;100.00;99802.09;2087906;28;19917;-72
2022/11/16 05:40:14;;;;;;;;;;;;;;;8.18;100.00;99797.66;2088727;28;19926;-71
2022/11/16 05:41:23;;;;;;;;;;;;;;;8.18;100.00;99807.44;2088345;28;19921;-72
2022/11/16 05:42:24;;;;;;;;;;;;;;;8.17;100.00;99795.91;2079966;28;21016;-72
2022/11/16 05:43:28;;;;;;;;;;;;;;;8.18;100.00;99794.09;2080345;28;20774;-70
2022/11/16 05:44:41;;;;;;;;;;;;;;;8.17;100.00;99817.25;2081543;28;20073;-72
2022/11/16 05:45:43;;;;;;;;;;;;;;;8.18;100.00;99804.78;2088514;28;20058;-72
2022/11/16 05:46:47;;;;;;;;;;;;;;;8.17;100.00;99800.38;2088284;28;20039;-71
2022/11/16 05:47:51;;;;;;;;;;;;;;;8.16;100.00;99798.63;2088737;28;21281;-71
2022/11/16 05:48:54;;;;;;;;;;;;;;;8.16;100.00;99806.63;2096544;28;19920;-71
2022/11/16 05:49:57;;;;;;;;;;;;;;;8.15;100.00;99804.88;2088244;28;20771;-71
2022/11/16 05:51:03;;;;;;;;;;;;;;;8.14;100.00;99809.31;2080453;28;19976;-71
2022/11/16 05:52:07;;;;;;;;;;;;;;;8.15;100.00;99813.75;2080784;28;19929;-71
2022/11/16 05:53:10;;;;;;;;;;;;;;;8.14;100.00;99812.00;2079677;28;19999;-71
2022/11/16 05:54:15;;;;;;;;;;;;;;;8.16;100.00;99823.47;2080347;28;19932;-71
2022/11/16 05:55:20;;;;;;;;;;;;;;;8.15;100.00;99820.88;2082785;28;19925;-70
2022/11/16 05:56:22;;;;;;;;;;;;;;;8.15;100.00;99812.88;2080568;28;19925;-71
2022/11/16 05:57:26;;;;;;;;;;;;;;;8.14;100.00;99814.66;2079997;28;20876;-71
2022/11/16 05:58:28;;;;;;;;;;;;;;;8.14;100.00;99812.00;2080260;28;19958;-71
2022/11/16 05:59:31;;;;;;;;;;;;;;;8.15;100.00;99818.22;2079709;28;19929;-71
2022/11/16 06:00:35;;;;;;;;;;;;;;;8.14;100.00;99821.78;2088810;28;20010;-71
2022/11/16 06:01:38;;;;;;;;;;;;;;;8.14;100.00;99813.78;2096110;28;20054;-71
2022/11/16 06:02:41;;;;;;;;;;;;;;;8.14;100.00;99816.47;2087988;28;19921;-71
2022/11/16 06:03:52;;;;;;;;;;;;;;;8.13;100.00;99815.59;2081241;28;20786;-71
2022/11/16 06:04:55;;;;;;;;;;;;;;;8.14;100.00;99829.78;2088262;28;23163;-70
2022/11/16 06:05:57;;;;;;;;;;;;;;;8.14;100.00;99816.47;2096427;28;19928;-70
2022/11/16 06:07:01;;;;;;;;;;;;;;;8.15;100.00;99818.22;2080038;28;19921;-71
2022/11/16 06:08:06;;;;;;;;;;;;;;;8.16;100.00;99827.94;2080322;28;19926;-70
2022/11/16 06:09:10;;;;;;;;;;;;;;;8.15;100.00;99823.56;2088557;28;20020;-70
2022/11/16 06:10:14;;;;;;;;;;;;;;;8.15;100.00;99815.56;2096092;28;20831;-70
2022/11/16 06:11:19;;;;;;;;;;;;;;;8.17;100.00;99822.56;2088552;28;19925;-70
2022/11/16 06:12:21;;;;;;;;;;;;;;;8.17;100.00;99817.25;2071627;28;19922;-69
2022/11/16 06:13:22;;;;;;;;;;;;;;;8.18;100.00;99828.75;2072204;28;20778;-70
2022/11/16 06:14:28;;;;;;;;;;;;;;;8.19;100.00;99820.72;2080473;28;19917;-69
2022/11/16 06:15:36;;;;;;;;;;;;;;;8.21;100.00;99820.69;2079961;28;19925;-70
2022/11/16 06:16:39;;;;;;;;;;;;;;;8.21;100.00;99826.00;2082036;28;19917;-70
2022/11/16 06:17:43;;;;;;;;;;;;;;;8.22;100.00;99831.31;2081943;28;20057;-70
2022/11/16 06:18:46;;;;;;;;;;;;;;;8.22;100.00;99825.09;2089452;28;20006;-71
2022/11/16 06:19:49;;;;;;;;;;;;;;;8.22;100.00;99827.78;2097789;28;19916;-70
2022/11/16 06:20:53;;;;;;;;;;;;;;;8.22;100.00;99825.09;2088988;28;19921;-69
2022/11/16 06:21:55;;;;;;;;;;;;;;;8.22;100.00;99830.44;2089359;28;19928;-70
2022/11/16 06:23:00;;;;;;;;;;;;;;;8.23;100.00;99830.38;2098103;28;19972;-70
2022/11/16 06:24:07;;;;;;;;;;;;;;;8.25;100.00;99834.78;2097814;28;20758;-69